sensor_id;sensor_type;location;lat;lon;timestamp;P1;durP1;ratioP1;P2;durP2;ratioP2
20531;SDS011;10424;52.102;8.084;2023-09-18T00:02:25;10.35;;;6.20;;
20531;SDS011;10424;52.102;8.084;2023-09-18T00:04:57;8.23;;;5.75;;
20531;SDS011;10424;52.102;8.084;2023-09-18T00:07:25;8.18;;;5.93;;
20531;SDS011;10424;52.102;8.084;2023-09-18T00:09:52;7.70;;;6.05;;
20531;SDS011;10424;52.102;8.084;2023-09-18T00:12:19;9.75;;;5.78;;
20531;SDS011;10424;52.102;8.084;2023-09-18T00:14:47;10.38;;;6.00;;
20531;SDS011;10424;52.102;8.084;2023-09-18T00:17:15;12.27;;;6.10;;
20531;SDS011;10424;52.102;8.084;2023-09-18T00:19:44;8.20;;;6.00;;
20531;SDS011;10424;52.102;8.084;2023-09-18T00:22:13;8.77;;;6.38;;
20531;SDS011;10424;52.102;8.084;2023-09-18T00:24:40;11.80;;;6.18;;
20531;SDS011;10424;52.102;8.084;2023-09-18T00:27:07;9.30;;;6.40;;
20531;SDS011;10424;52.102;8.084;2023-09-18T00:29:35;9.60;;;5.95;;
20531;SDS011;10424;52.102;8.084;2023-09-18T00:32:03;10.27;;;6.30;;
20531;SDS011;10424;52.102;8.084;2023-09-18T00:34:30;11.80;;;5.90;;
20531;SDS011;10424;52.102;8.084;2023-09-18T00:36:58;14.25;;;6.57;;
20531;SDS011;10424;52.102;8.084;2023-09-18T00:39:26;10.00;;;6.03;;
20531;SDS011;10424;52.102;8.084;2023-09-18T00:41:54;10.35;;;6.10;;
20531;SDS011;10424;52.102;8.084;2023-09-18T00:44:21;11.35;;;5.60;;
20531;SDS011;10424;52.102;8.084;2023-09-18T00:46:49;9.95;;;6.20;;
20531;SDS011;10424;52.102;8.084;2023-09-18T00:49:16;10.50;;;5.93;;
20531;SDS011;10424;52.102;8.084;2023-09-18T00:51:45;10.45;;;5.75;;
20531;SDS011;10424;52.102;8.084;2023-09-18T00:54:13;11.35;;;6.07;;
20531;SDS011;10424;52.102;8.084;2023-09-18T00:56:43;14.02;;;6.00;;
20531;SDS011;10424;52.102;8.084;2023-09-18T00:59:10;11.52;;;6.40;;
20531;SDS011;10424;52.102;8.084;2023-09-18T01:01:39;10.55;;;6.25;;
20531;SDS011;10424;52.102;8.084;2023-09-18T01:04:07;10.75;;;6.43;;
20531;SDS011;10424;52.102;8.084;2023-09-18T01:06:34;9.13;;;6.22;;
20531;SDS011;10424;52.102;8.084;2023-09-18T01:09:02;7.78;;;5.88;;
20531;SDS011;10424;52.102;8.084;2023-09-18T01:11:39;10.48;;;6.28;;
20531;SDS011;10424;52.102;8.084;2023-09-18T01:14:11;10.95;;;6.13;;
20531;SDS011;10424;52.102;8.084;2023-09-18T01:16:39;9.35;;;5.85;;
20531;SDS011;10424;52.102;8.084;2023-09-18T01:19:10;9.70;;;5.90;;
20531;SDS011;10424;52.102;8.084;2023-09-18T01:21:38;11.45;;;6.20;;
20531;SDS011;10424;52.102;8.084;2023-09-18T01:24:06;10.27;;;6.15;;
20531;SDS011;10424;52.102;8.084;2023-09-18T01:26:34;8.77;;;5.97;;
20531;SDS011;10424;52.102;8.084;2023-09-18T01:29:01;12.57;;;5.80;;
20531;SDS011;10424;52.102;8.084;2023-09-18T01:31:29;10.98;;;5.75;;
20531;SDS011;10424;52.102;8.084;2023-09-18T01:33:56;12.27;;;6.28;;
20531;SDS011;10424;52.102;8.084;2023-09-18T01:36:24;10.98;;;6.00;;
20531;SDS011;10424;52.102;8.084;2023-09-18T01:38:51;8.77;;;6.00;;
20531;SDS011;10424;52.102;8.084;2023-09-18T01:41:20;9.75;;;5.85;;
20531;SDS011;10424;52.102;8.084;2023-09-18T01:43:48;8.63;;;5.35;;
20531;SDS011;10424;52.102;8.084;2023-09-18T01:46:15;9.30;;;5.82;;
20531;SDS011;10424;52.102;8.084;2023-09-18T01:48:46;11.55;;;5.70;;
20531;SDS011;10424;52.102;8.084;2023-09-18T01:51:14;11.48;;;6.18;;
20531;SDS011;10424;52.102;8.084;2023-09-18T01:53:41;9.82;;;5.53;;
20531;SDS011;10424;52.102;8.084;2023-09-18T01:56:09;11.57;;;5.80;;
20531;SDS011;10424;52.102;8.084;2023-09-18T01:58:38;9.23;;;5.50;;
20531;SDS011;10424;52.102;8.084;2023-09-18T02:01:05;14.30;;;5.88;;
20531;SDS011;10424;52.102;8.084;2023-09-18T02:03:32;8.13;;;5.80;;
20531;SDS011;10424;52.102;8.084;2023-09-18T02:06:00;10.98;;;5.45;;
20531;SDS011;10424;52.102;8.084;2023-09-18T02:08:27;11.20;;;5.65;;
20531;SDS011;10424;52.102;8.084;2023-09-18T02:10:54;10.70;;;5.65;;
20531;SDS011;10424;52.102;8.084;2023-09-18T02:13:21;10.70;;;5.47;;
20531;SDS011;10424;52.102;8.084;2023-09-18T02:15:50;9.55;;;5.72;;
20531;SDS011;10424;52.102;8.084;2023-09-18T02:18:17;12.35;;;5.80;;
20531;SDS011;10424;52.102;8.084;2023-09-18T02:20:45;15.00;;;6.07;;
20531;SDS011;10424;52.102;8.084;2023-09-18T02:23:14;9.57;;;5.30;;
20531;SDS011;10424;52.102;8.084;2023-09-18T02:25:41;10.05;;;5.53;;
20531;SDS011;10424;52.102;8.084;2023-09-18T02:28:09;8.88;;;5.30;;
20531;SDS011;10424;52.102;8.084;2023-09-18T02:30:36;9.00;;;5.68;;
20531;SDS011;10424;52.102;8.084;2023-09-18T02:33:05;11.57;;;5.70;;
20531;SDS011;10424;52.102;8.084;2023-09-18T02:35:32;10.43;;;5.50;;
20531;SDS011;10424;52.102;8.084;2023-09-18T02:37:59;9.52;;;5.75;;
20531;SDS011;10424;52.102;8.084;2023-09-18T02:40:27;10.63;;;5.70;;
20531;SDS011;10424;52.102;8.084;2023-09-18T02:42:55;10.35;;;5.72;;
20531;SDS011;10424;52.102;8.084;2023-09-18T02:45:22;11.35;;;5.32;;
20531;SDS011;10424;52.102;8.084;2023-09-18T02:47:49;10.55;;;5.35;;
20531;SDS011;10424;52.102;8.084;2023-09-18T02:50:18;11.32;;;5.50;;
20531;SDS011;10424;52.102;8.084;2023-09-18T02:52:45;12.50;;;5.82;;
20531;SDS011;10424;52.102;8.084;2023-09-18T02:55:12;9.48;;;5.30;;
20531;SDS011;10424;52.102;8.084;2023-09-18T02:57:40;15.20;;;5.90;;
20531;SDS011;10424;52.102;8.084;2023-09-18T03:00:08;11.40;;;5.70;;
20531;SDS011;10424;52.102;8.084;2023-09-18T03:02:35;10.27;;;5.40;;
20531;SDS011;10424;52.102;8.084;2023-09-18T03:05:03;9.38;;;5.10;;
20531;SDS011;10424;52.102;8.084;2023-09-18T03:07:32;13.82;;;5.53;;
20531;SDS011;10424;52.102;8.084;2023-09-18T03:09:59;9.75;;;5.57;;
20531;SDS011;10424;52.102;8.084;2023-09-18T03:12:26;10.70;;;5.40;;
20531;SDS011;10424;52.102;8.084;2023-09-18T03:14:54;11.30;;;5.78;;
20531;SDS011;10424;52.102;8.084;2023-09-18T03:17:21;11.10;;;5.25;;
20531;SDS011;10424;52.102;8.084;2023-09-18T03:19:49;8.85;;;5.35;;
20531;SDS011;10424;52.102;8.084;2023-09-18T03:22:16;10.30;;;5.70;;
20531;SDS011;10424;52.102;8.084;2023-09-18T03:24:44;11.50;;;5.22;;
20531;SDS011;10424;52.102;8.084;2023-09-18T03:27:12;12.82;;;5.47;;
20531;SDS011;10424;52.102;8.084;2023-09-18T03:29:39;10.18;;;5.05;;
20531;SDS011;10424;52.102;8.084;2023-09-18T03:32:06;11.98;;;5.22;;
20531;SDS011;10424;52.102;8.084;2023-09-18T03:34:37;10.15;;;5.13;;
20531;SDS011;10424;52.102;8.084;2023-09-18T03:37:04;9.45;;;5.47;;
20531;SDS011;10424;52.102;8.084;2023-09-18T03:39:31;13.52;;;5.25;;
20531;SDS011;10424;52.102;8.084;2023-09-18T03:42:00;7.40;;;5.25;;
20531;SDS011;10424;52.102;8.084;2023-09-18T03:44:28;10.30;;;5.35;;
20531;SDS011;10424;52.102;8.084;2023-09-18T03:46:55;9.00;;;5.20;;
20531;SDS011;10424;52.102;8.084;2023-09-18T03:49:23;10.07;;;5.18;;
20531;SDS011;10424;52.102;8.084;2023-09-18T03:51:50;10.73;;;5.38;;
20531;SDS011;10424;52.102;8.084;2023-09-18T03:54:17;9.35;;;5.43;;
20531;SDS011;10424;52.102;8.084;2023-09-18T03:56:44;11.73;;;5.60;;
20531;SDS011;10424;52.102;8.084;2023-09-18T03:59:13;7.72;;;4.90;;
20531;SDS011;10424;52.102;8.084;2023-09-18T04:01:41;10.07;;;5.18;;
20531;SDS011;10424;52.102;8.084;2023-09-18T04:04:08;11.13;;;5.30;;
20531;SDS011;10424;52.102;8.084;2023-09-18T04:06:36;9.45;;;5.50;;
20531;SDS011;10424;52.102;8.084;2023-09-18T04:09:03;9.73;;;5.18;;
20531;SDS011;10424;52.102;8.084;2023-09-18T04:11:31;9.57;;;5.35;;
20531;SDS011;10424;52.102;8.084;2023-09-18T04:13:58;11.57;;;5.50;;
20531;SDS011;10424;52.102;8.084;2023-09-18T04:16:27;9.10;;;5.40;;
20531;SDS011;10424;52.102;8.084;2023-09-18T04:18:55;12.13;;;5.35;;
20531;SDS011;10424;52.102;8.084;2023-09-18T04:21:23;9.65;;;5.50;;
20531;SDS011;10424;52.102;8.084;2023-09-18T04:23:50;9.57;;;5.53;;
20531;SDS011;10424;52.102;8.084;2023-09-18T04:26:22;11.93;;;5.22;;
20531;SDS011;10424;52.102;8.084;2023-09-18T04:28:49;9.68;;;5.70;;
20531;SDS011;10424;52.102;8.084;2023-09-18T04:31:16;12.15;;;5.20;;
20531;SDS011;10424;52.102;8.084;2023-09-18T04:33:45;9.10;;;5.43;;
20531;SDS011;10424;52.102;8.084;2023-09-18T04:36:13;9.18;;;5.80;;
20531;SDS011;10424;52.102;8.084;2023-09-18T04:38:41;8.43;;;5.20;;
20531;SDS011;10424;52.102;8.084;2023-09-18T04:41:08;9.50;;;5.07;;
20531;SDS011;10424;52.102;8.084;2023-09-18T04:43:36;8.32;;;5.55;;
20531;SDS011;10424;52.102;8.084;2023-09-18T04:46:03;9.93;;;5.30;;
20531;SDS011;10424;52.102;8.084;2023-09-18T04:48:30;7.75;;;5.18;;
20531;SDS011;10424;52.102;8.084;2023-09-18T04:50:59;10.48;;;5.45;;
20531;SDS011;10424;52.102;8.084;2023-09-18T04:53:28;11.13;;;5.20;;
20531;SDS011;10424;52.102;8.084;2023-09-18T04:55:56;11.90;;;5.00;;
20531;SDS011;10424;52.102;8.084;2023-09-18T04:58:23;8.55;;;5.15;;
20531;SDS011;10424;52.102;8.084;2023-09-18T05:00:53;12.40;;;5.45;;
20531;SDS011;10424;52.102;8.084;2023-09-18T05:03:21;10.85;;;5.57;;
20531;SDS011;10424;52.102;8.084;2023-09-18T05:05:48;9.93;;;5.60;;
20531;SDS011;10424;52.102;8.084;2023-09-18T05:08:17;7.88;;;5.20;;
20531;SDS011;10424;52.102;8.084;2023-09-18T05:10:44;10.07;;;5.63;;
20531;SDS011;10424;52.102;8.084;2023-09-18T05:13:13;9.23;;;5.75;;
20531;SDS011;10424;52.102;8.084;2023-09-18T05:15:40;11.20;;;5.30;;
20531;SDS011;10424;52.102;8.084;2023-09-18T05:18:07;20.70;;;8.90;;
20531;SDS011;10424;52.102;8.084;2023-09-18T05:20:35;11.02;;;5.85;;
20531;SDS011;10424;52.102;8.084;2023-09-18T05:23:02;7.95;;;5.30;;
20531;SDS011;10424;52.102;8.084;2023-09-18T05:25:31;8.48;;;5.03;;
20531;SDS011;10424;52.102;8.084;2023-09-18T05:27:59;9.25;;;5.30;;
20531;SDS011;10424;52.102;8.084;2023-09-18T05:30:27;9.82;;;5.50;;
20531;SDS011;10424;52.102;8.084;2023-09-18T05:32:54;7.38;;;5.03;;
20531;SDS011;10424;52.102;8.084;2023-09-18T05:35:22;9.13;;;5.50;;
20531;SDS011;10424;52.102;8.084;2023-09-18T05:37:49;8.35;;;5.07;;
20531;SDS011;10424;52.102;8.084;2023-09-18T05:40:17;12.20;;;5.53;;
20531;SDS011;10424;52.102;8.084;2023-09-18T05:42:46;7.75;;;4.90;;
20531;SDS011;10424;52.102;8.084;2023-09-18T05:45:14;8.88;;;5.28;;
20531;SDS011;10424;52.102;8.084;2023-09-18T05:47:41;10.55;;;5.50;;
20531;SDS011;10424;52.102;8.084;2023-09-18T05:50:09;9.40;;;5.15;;
20531;SDS011;10424;52.102;8.084;2023-09-18T05:52:41;9.38;;;4.97;;
20531;SDS011;10424;52.102;8.084;2023-09-18T05:55:08;9.60;;;5.50;;
20531;SDS011;10424;52.102;8.084;2023-09-18T05:57:36;6.75;;;4.88;;
20531;SDS011;10424;52.102;8.084;2023-09-18T06:00:05;12.32;;;5.53;;
20531;SDS011;10424;52.102;8.084;2023-09-18T06:02:33;8.55;;;5.40;;
20531;SDS011;10424;52.102;8.084;2023-09-18T06:05:00;9.15;;;5.32;;
20531;SDS011;10424;52.102;8.084;2023-09-18T06:07:31;6.88;;;5.00;;
20531;SDS011;10424;52.102;8.084;2023-09-18T06:09:59;9.73;;;5.40;;
20531;SDS011;10424;52.102;8.084;2023-09-18T06:12:26;8.38;;;5.20;;
20531;SDS011;10424;52.102;8.084;2023-09-18T06:14:54;7.07;;;5.07;;
20531;SDS011;10424;52.102;8.084;2023-09-18T06:17:23;9.63;;;5.32;;
20531;SDS011;10424;52.102;8.084;2023-09-18T06:19:50;12.02;;;5.47;;
20531;SDS011;10424;52.102;8.084;2023-09-18T06:22:18;11.65;;;5.07;;
20531;SDS011;10424;52.102;8.084;2023-09-18T06:24:46;10.52;;;5.50;;
20531;SDS011;10424;52.102;8.084;2023-09-18T06:27:13;10.63;;;5.07;;
20531;SDS011;10424;52.102;8.084;2023-09-18T06:29:41;7.43;;;5.28;;
20531;SDS011;10424;52.102;8.084;2023-09-18T06:32:08;7.80;;;5.05;;
20531;SDS011;10424;52.102;8.084;2023-09-18T06:34:37;8.60;;;5.35;;
20531;SDS011;10424;52.102;8.084;2023-09-18T06:37:08;8.10;;;5.05;;
20531;SDS011;10424;52.102;8.084;2023-09-18T06:39:37;9.82;;;5.10;;
20531;SDS011;10424;52.102;8.084;2023-09-18T06:42:05;14.15;;;5.63;;
20531;SDS011;10424;52.102;8.084;2023-09-18T06:44:32;12.82;;;5.10;;
20531;SDS011;10424;52.102;8.084;2023-09-18T06:46:59;11.40;;;5.18;;
20531;SDS011;10424;52.102;8.084;2023-09-18T06:49:26;11.57;;;5.47;;
20531;SDS011;10424;52.102;8.084;2023-09-18T06:51:55;18.58;;;5.53;;
20531;SDS011;10424;52.102;8.084;2023-09-18T06:54:23;13.27;;;5.40;;
20531;SDS011;10424;52.102;8.084;2023-09-18T06:56:50;18.08;;;5.75;;
20531;SDS011;10424;52.102;8.084;2023-09-18T06:59:17;18.55;;;6.70;;
20531;SDS011;10424;52.102;8.084;2023-09-18T07:01:45;17.85;;;6.10;;
20531;SDS011;10424;52.102;8.084;2023-09-18T07:04:12;10.07;;;5.07;;
20531;SDS011;10424;52.102;8.084;2023-09-18T07:06:39;16.88;;;5.35;;
20531;SDS011;10424;52.102;8.084;2023-09-18T07:09:08;14.05;;;5.30;;
20531;SDS011;10424;52.102;8.084;2023-09-18T07:11:37;15.02;;;5.57;;
20531;SDS011;10424;52.102;8.084;2023-09-18T07:14:04;14.80;;;4.55;;
20531;SDS011;10424;52.102;8.084;2023-09-18T07:16:33;11.57;;;4.65;;
20531;SDS011;10424;52.102;8.084;2023-09-18T07:19:00;13.65;;;4.90;;
20531;SDS011;10424;52.102;8.084;2023-09-18T07:21:29;12.02;;;4.47;;
20531;SDS011;10424;52.102;8.084;2023-09-18T07:23:57;9.25;;;4.00;;
20531;SDS011;10424;52.102;8.084;2023-09-18T07:26:25;9.95;;;4.40;;
20531;SDS011;10424;52.102;8.084;2023-09-18T07:28:53;6.35;;;3.90;;
20531;SDS011;10424;52.102;8.084;2023-09-18T07:31:20;8.15;;;4.03;;
20531;SDS011;10424;52.102;8.084;2023-09-18T07:33:48;6.13;;;3.10;;
20531;SDS011;10424;52.102;8.084;2023-09-18T07:36:15;11.93;;;3.70;;
20531;SDS011;10424;52.102;8.084;2023-09-18T07:38:42;11.57;;;3.08;;
20531;SDS011;10424;52.102;8.084;2023-09-18T07:41:10;6.90;;;2.30;;
20531;SDS011;10424;52.102;8.084;2023-09-18T07:43:38;9.38;;;2.88;;
20531;SDS011;10424;52.102;8.084;2023-09-18T07:46:07;9.10;;;2.95;;
20531;SDS011;10424;52.102;8.084;2023-09-18T07:48:34;6.90;;;2.20;;
20531;SDS011;10424;52.102;8.084;2023-09-18T07:51:02;7.97;;;2.53;;
20531;SDS011;10424;52.102;8.084;2023-09-18T07:53:30;12.50;;;2.70;;
20531;SDS011;10424;52.102;8.084;2023-09-18T07:55:58;11.40;;;2.88;;
20531;SDS011;10424;52.102;8.084;2023-09-18T07:58:27;8.73;;;2.35;;
20531;SDS011;10424;52.102;8.084;2023-09-18T08:00:56;7.82;;;2.38;;
20531;SDS011;10424;52.102;8.084;2023-09-18T08:03:24;7.65;;;3.00;;
20531;SDS011;10424;52.102;8.084;2023-09-18T08:05:51;6.00;;;2.20;;
20531;SDS011;10424;52.102;8.084;2023-09-18T08:08:19;7.20;;;2.53;;
20531;SDS011;10424;52.102;8.084;2023-09-18T08:10:47;9.52;;;2.25;;
20531;SDS011;10424;52.102;8.084;2023-09-18T08:13:14;8.52;;;2.35;;
20531;SDS011;10424;52.102;8.084;2023-09-18T08:15:41;11.07;;;2.85;;
20531;SDS011;10424;52.102;8.084;2023-09-18T08:18:10;8.73;;;2.75;;
20531;SDS011;10424;52.102;8.084;2023-09-18T08:20:40;7.90;;;2.50;;
20531;SDS011;10424;52.102;8.084;2023-09-18T08:23:08;9.93;;;2.38;;
20531;SDS011;10424;52.102;8.084;2023-09-18T08:25:35;8.77;;;2.13;;
20531;SDS011;10424;52.102;8.084;2023-09-18T08:28:03;10.23;;;2.60;;
20531;SDS011;10424;52.102;8.084;2023-09-18T08:30:31;7.60;;;1.85;;
20531;SDS011;10424;52.102;8.084;2023-09-18T08:32:59;7.53;;;2.30;;
20531;SDS011;10424;52.102;8.084;2023-09-18T08:35:27;7.47;;;2.33;;
20531;SDS011;10424;52.102;8.084;2023-09-18T08:37:55;9.48;;;2.42;;
20531;SDS011;10424;52.102;8.084;2023-09-18T08:40:22;9.00;;;2.50;;
20531;SDS011;10424;52.102;8.084;2023-09-18T08:42:51;8.95;;;2.53;;
20531;SDS011;10424;52.102;8.084;2023-09-18T08:45:22;5.65;;;2.40;;
20531;SDS011;10424;52.102;8.084;2023-09-18T08:47:50;6.50;;;2.08;;
20531;SDS011;10424;52.102;8.084;2023-09-18T08:50:18;8.07;;;2.75;;
20531;SDS011;10424;52.102;8.084;2023-09-18T08:52:48;8.65;;;2.40;;
20531;SDS011;10424;52.102;8.084;2023-09-18T08:55:16;8.18;;;2.30;;
20531;SDS011;10424;52.102;8.084;2023-09-18T08:57:44;8.35;;;2.50;;
20531;SDS011;10424;52.102;8.084;2023-09-18T09:00:11;6.95;;;2.40;;
20531;SDS011;10424;52.102;8.084;2023-09-18T09:02:42;6.13;;;2.13;;
20531;SDS011;10424;52.102;8.084;2023-09-18T09:05:11;10.23;;;2.58;;
20531;SDS011;10424;52.102;8.084;2023-09-18T09:07:38;7.47;;;2.22;;
20531;SDS011;10424;52.102;8.084;2023-09-18T09:10:07;8.45;;;2.30;;
20531;SDS011;10424;52.102;8.084;2023-09-18T09:12:48;5.60;;;2.30;;
20531;SDS011;10424;52.102;8.084;2023-09-18T09:15:15;8.68;;;2.40;;
20531;SDS011;10424;52.102;8.084;2023-09-18T09:17:43;6.70;;;2.17;;
20531;SDS011;10424;52.102;8.084;2023-09-18T09:20:11;7.10;;;1.90;;
20531;SDS011;10424;52.102;8.084;2023-09-18T09:22:38;6.35;;;2.10;;
20531;SDS011;10424;52.102;8.084;2023-09-18T09:28:00;8.77;;;2.10;;
20531;SDS011;10424;52.102;8.084;2023-09-18T09:30:28;7.15;;;2.10;;
20531;SDS011;10424;52.102;8.084;2023-09-18T09:32:57;8.30;;;2.45;;
20531;SDS011;10424;52.102;8.084;2023-09-18T09:35:25;5.03;;;2.28;;
20531;SDS011;10424;52.102;8.084;2023-09-18T09:37:59;5.80;;;2.05;;
20531;SDS011;10424;52.102;8.084;2023-09-18T09:40:27;7.03;;;2.40;;
20531;SDS011;10424;52.102;8.084;2023-09-18T09:42:55;4.45;;;2.10;;
20531;SDS011;10424;52.102;8.084;2023-09-18T09:45:28;4.07;;;1.95;;
20531;SDS011;10424;52.102;8.084;2023-09-18T09:47:56;5.38;;;1.95;;
20531;SDS011;10424;52.102;8.084;2023-09-18T09:50:24;4.72;;;1.85;;
20531;SDS011;10424;52.102;8.084;2023-09-18T09:52:52;6.45;;;2.45;;
20531;SDS011;10424;52.102;8.084;2023-09-18T09:55:24;7.70;;;2.05;;
20531;SDS011;10424;52.102;8.084;2023-09-18T09:57:53;6.32;;;2.00;;
20531;SDS011;10424;52.102;8.084;2023-09-18T10:00:22;7.32;;;2.10;;
20531;SDS011;10424;52.102;8.084;2023-09-18T10:03:00;9.00;;;2.55;;
20531;SDS011;10424;52.102;8.084;2023-09-18T10:05:32;7.45;;;2.00;;
20531;SDS011;10424;52.102;8.084;2023-09-18T10:08:02;5.85;;;2.00;;
20531;SDS011;10424;52.102;8.084;2023-09-18T10:10:30;4.70;;;2.15;;
20531;SDS011;10424;52.102;8.084;2023-09-18T10:13:00;4.45;;;2.03;;
20531;SDS011;10424;52.102;8.084;2023-09-18T10:15:28;4.82;;;1.70;;
20531;SDS011;10424;52.102;8.084;2023-09-18T10:18:00;5.65;;;1.90;;
20531;SDS011;10424;52.102;8.084;2023-09-18T10:20:30;7.18;;;1.85;;
20531;SDS011;10424;52.102;8.084;2023-09-18T10:22:57;5.57;;;2.03;;
20531;SDS011;10424;52.102;8.084;2023-09-18T10:25:29;5.18;;;1.98;;
20531;SDS011;10424;52.102;8.084;2023-09-18T10:27:57;5.60;;;1.55;;
20531;SDS011;10424;52.102;8.084;2023-09-18T10:30:26;5.18;;;1.90;;
20531;SDS011;10424;52.102;8.084;2023-09-18T10:32:54;5.57;;;1.98;;
20531;SDS011;10424;52.102;8.084;2023-09-18T10:35:26;4.65;;;1.70;;
20531;SDS011;10424;52.102;8.084;2023-09-18T10:37:54;4.65;;;1.70;;
20531;SDS011;10424;52.102;8.084;2023-09-18T10:40:21;2.90;;;1.58;;
20531;SDS011;10424;52.102;8.084;2023-09-18T10:42:51;4.90;;;1.80;;
20531;SDS011;10424;52.102;8.084;2023-09-18T10:45:19;5.40;;;2.00;;
20531;SDS011;10424;52.102;8.084;2023-09-18T10:47:46;4.10;;;2.10;;
20531;SDS011;10424;52.102;8.084;2023-09-18T10:50:22;7.35;;;2.10;;
20531;SDS011;10424;52.102;8.084;2023-09-18T10:52:51;4.95;;;1.70;;
20531;SDS011;10424;52.102;8.084;2023-09-18T10:55:19;3.95;;;2.00;;
20531;SDS011;10424;52.102;8.084;2023-09-18T10:57:52;8.15;;;2.42;;
20531;SDS011;10424;52.102;8.084;2023-09-18T11:00:20;3.35;;;1.90;;
20531;SDS011;10424;52.102;8.084;2023-09-18T11:02:51;4.45;;;2.22;;
20531;SDS011;10424;52.102;8.084;2023-09-18T11:05:30;5.20;;;2.00;;
20531;SDS011;10424;52.102;8.084;2023-09-18T11:10:55;4.80;;;2.00;;
20531;SDS011;10424;52.102;8.084;2023-09-18T11:13:29;3.95;;;1.80;;
20531;SDS011;10424;52.102;8.084;2023-09-18T11:16:00;5.75;;;2.00;;
20531;SDS011;10424;52.102;8.084;2023-09-18T11:18:32;3.75;;;1.85;;
20531;SDS011;10424;52.102;8.084;2023-09-18T11:21:08;5.45;;;1.92;;
20531;SDS011;10424;52.102;8.084;2023-09-18T11:23:36;3.78;;;1.50;;
20531;SDS011;10424;52.102;8.084;2023-09-18T11:26:09;4.43;;;1.67;;
20531;SDS011;10424;52.102;8.084;2023-09-18T11:28:36;3.28;;;1.42;;
20531;SDS011;10424;52.102;8.084;2023-09-18T11:31:04;5.65;;;1.50;;
20531;SDS011;10424;52.102;8.084;2023-09-18T11:33:33;4.38;;;1.40;;
20531;SDS011;10424;52.102;8.084;2023-09-18T11:36:03;4.95;;;1.45;;
20531;SDS011;10424;52.102;8.084;2023-09-18T11:38:31;3.47;;;1.35;;
20531;SDS011;10424;52.102;8.084;2023-09-18T11:41:01;4.28;;;1.40;;
20531;SDS011;10424;52.102;8.084;2023-09-18T11:43:30;4.35;;;1.50;;
20531;SDS011;10424;52.102;8.084;2023-09-18T11:46:01;4.15;;;1.50;;
20531;SDS011;10424;52.102;8.084;2023-09-18T11:48:29;3.25;;;1.38;;
20531;SDS011;10424;52.102;8.084;2023-09-18T11:51:01;5.28;;;1.50;;
20531;SDS011;10424;52.102;8.084;2023-09-18T11:53:33;3.53;;;1.42;;
20531;SDS011;10424;52.102;8.084;2023-09-18T11:56:02;3.58;;;1.23;;
20531;SDS011;10424;52.102;8.084;2023-09-18T11:58:31;3.45;;;1.58;;
20531;SDS011;10424;52.102;8.084;2023-09-18T12:01:11;4.53;;;1.30;;
20531;SDS011;10424;52.102;8.084;2023-09-18T12:03:40;2.92;;;1.30;;
20531;SDS011;10424;52.102;8.084;2023-09-18T12:06:08;3.95;;;1.13;;
20531;SDS011;10424;52.102;8.084;2023-09-18T12:08:38;1.35;;;1.08;;
20531;SDS011;10424;52.102;8.084;2023-09-18T12:11:06;2.83;;;1.30;;
20531;SDS011;10424;52.102;8.084;2023-09-18T12:13:35;3.10;;;1.10;;
20531;SDS011;10424;52.102;8.084;2023-09-18T12:16:03;2.05;;;1.10;;
20531;SDS011;10424;52.102;8.084;2023-09-18T12:18:31;3.75;;;1.10;;
20531;SDS011;10424;52.102;8.084;2023-09-18T12:21:00;2.25;;;1.05;;
20531;SDS011;10424;52.102;8.084;2023-09-18T12:23:36;1.70;;;1.20;;
20531;SDS011;10424;52.102;8.084;2023-09-18T12:26:04;6.18;;;1.05;;
20531;SDS011;10424;52.102;8.084;2023-09-18T12:28:32;2.97;;;1.20;;
20531;SDS011;10424;52.102;8.084;2023-09-18T12:31:01;4.50;;;1.13;;
20531;SDS011;10424;52.102;8.084;2023-09-18T12:33:30;2.78;;;1.30;;
20531;SDS011;10424;52.102;8.084;2023-09-18T12:36:00;2.97;;;1.10;;
20531;SDS011;10424;52.102;8.084;2023-09-18T12:38:28;4.03;;;1.30;;
20531;SDS011;10424;52.102;8.084;2023-09-18T12:40:55;5.07;;;1.20;;
20531;SDS011;10424;52.102;8.084;2023-09-18T12:43:31;3.50;;;1.20;;
20531;SDS011;10424;52.102;8.084;2023-09-18T12:45:59;4.03;;;1.20;;
20531;SDS011;10424;52.102;8.084;2023-09-18T12:48:28;1.83;;;1.10;;
20531;SDS011;10424;52.102;8.084;2023-09-18T12:51:01;2.90;;;1.20;;
20531;SDS011;10424;52.102;8.084;2023-09-18T12:53:29;2.92;;;1.10;;
20531;SDS011;10424;52.102;8.084;2023-09-18T12:56:04;4.20;;;1.20;;
20531;SDS011;10424;52.102;8.084;2023-09-18T12:58:31;3.63;;;1.38;;
20531;SDS011;10424;52.102;8.084;2023-09-18T13:01:03;4.90;;;1.25;;
20531;SDS011;10424;52.102;8.084;2023-09-18T13:03:34;4.57;;;1.50;;
20531;SDS011;10424;52.102;8.084;2023-09-18T13:06:09;6.10;;;1.30;;
20531;SDS011;10424;52.102;8.084;2023-09-18T13:08:36;2.35;;;1.30;;
20531;SDS011;10424;52.102;8.084;2023-09-18T13:11:04;2.50;;;1.23;;
20531;SDS011;10424;52.102;8.084;2023-09-18T13:13:32;3.38;;;1.58;;
20531;SDS011;10424;52.102;8.084;2023-09-18T13:15:59;3.05;;;1.67;;
20531;SDS011;10424;52.102;8.084;2023-09-18T13:18:29;4.07;;;1.77;;
20531;SDS011;10424;52.102;8.084;2023-09-18T13:20:57;3.95;;;1.30;;
20531;SDS011;10424;52.102;8.084;2023-09-18T13:23:29;5.18;;;2.20;;
20531;SDS011;10424;52.102;8.084;2023-09-18T13:25:59;3.33;;;1.70;;
20531;SDS011;10424;52.102;8.084;2023-09-18T13:28:28;3.75;;;1.60;;
20531;SDS011;10424;52.102;8.084;2023-09-18T13:30:56;3.03;;;1.30;;
20531;SDS011;10424;52.102;8.084;2023-09-18T13:33:24;4.32;;;1.70;;
20531;SDS011;10424;52.102;8.084;2023-09-18T13:35:52;3.42;;;1.40;;
20531;SDS011;10424;52.102;8.084;2023-09-18T13:38:22;3.78;;;1.50;;
20531;SDS011;10424;52.102;8.084;2023-09-18T13:40:51;3.58;;;1.75;;
20531;SDS011;10424;52.102;8.084;2023-09-18T13:43:21;2.40;;;1.50;;
20531;SDS011;10424;52.102;8.084;2023-09-18T13:45:48;6.40;;;2.05;;
20531;SDS011;10424;52.102;8.084;2023-09-18T13:48:18;2.78;;;1.88;;
20531;SDS011;10424;52.102;8.084;2023-09-18T13:50:45;4.10;;;1.60;;
20531;SDS011;10424;52.102;8.084;2023-09-18T13:53:13;3.17;;;1.50;;
20531;SDS011;10424;52.102;8.084;2023-09-18T13:55:42;4.00;;;1.50;;
20531;SDS011;10424;52.102;8.084;2023-09-18T13:58:10;2.50;;;1.60;;
20531;SDS011;10424;52.102;8.084;2023-09-18T14:00:37;3.35;;;1.77;;
20531;SDS011;10424;52.102;8.084;2023-09-18T14:03:05;3.03;;;1.58;;
20531;SDS011;10424;52.102;8.084;2023-09-18T14:05:32;4.90;;;1.90;;
20531;SDS011;10424;52.102;8.084;2023-09-18T14:08:00;5.22;;;1.80;;
20531;SDS011;10424;52.102;8.084;2023-09-18T14:10:29;4.20;;;1.60;;
20531;SDS011;10424;52.102;8.084;2023-09-18T14:12:57;7.15;;;1.73;;
20531;SDS011;10424;52.102;8.084;2023-09-18T14:15:25;4.32;;;1.90;;
20531;SDS011;10424;52.102;8.084;2023-09-18T14:17:54;2.90;;;1.33;;
20531;SDS011;10424;52.102;8.084;2023-09-18T14:20:21;4.13;;;1.30;;
20531;SDS011;10424;52.102;8.084;2023-09-18T14:22:49;3.38;;;1.45;;
20531;SDS011;10424;52.102;8.084;2023-09-18T14:25:16;3.42;;;1.75;;
20531;SDS011;10424;52.102;8.084;2023-09-18T14:27:45;4.40;;;1.33;;
20531;SDS011;10424;52.102;8.084;2023-09-18T14:30:14;3.63;;;1.50;;
20531;SDS011;10424;52.102;8.084;2023-09-18T14:32:41;2.88;;;1.65;;
20531;SDS011;10424;52.102;8.084;2023-09-18T14:35:09;4.50;;;1.52;;
20531;SDS011;10424;52.102;8.084;2023-09-18T14:37:36;4.00;;;1.50;;
20531;SDS011;10424;52.102;8.084;2023-09-18T14:40:04;7.55;;;1.40;;
20531;SDS011;10424;52.102;8.084;2023-09-18T14:42:35;2.78;;;1.50;;
20531;SDS011;10424;52.102;8.084;2023-09-18T14:45:03;3.55;;;1.40;;
20531;SDS011;10424;52.102;8.084;2023-09-18T14:47:32;4.35;;;1.60;;
20531;SDS011;10424;52.102;8.084;2023-09-18T14:49:59;4.35;;;1.30;;
20531;SDS011;10424;52.102;8.084;2023-09-18T14:52:26;2.05;;;1.30;;
20531;SDS011;10424;52.102;8.084;2023-09-18T14:54:54;3.70;;;1.90;;
20531;SDS011;10424;52.102;8.084;2023-09-18T14:57:22;2.25;;;1.50;;